Startpagina
METAR-TAF:

METAR-TAF

Vliegvelden :

Alice Springs, Australië

breedte: 23-48S, lengte: 133-53E, hoogte: 545 m

Actueel weer

Dit bericht is 39 minuten geleden gemaakt, om 00:00 UTC
Wind 1 kt uit het noordnoordoosten
Temperatuur 19°C
Vochtigheid 21%
Druk 1023 hPa
Zicht 10 km of meer
geen wolken onder 1500 m en geen cumulonimbus

METAR: YBAS 260000Z 03001KT CAVOK 19/M04 Q1023

Tijdstip: 10:09 (00:39 UTC)

Verwachting

Dit bericht is 1 uur en het 22 minuten geleden gemaakt, om 23:17 UTC
Verwachting geldig van 26 om 00 UTC tot 26 om 24 UTC
Wind 14 kt uit het oosten
Zicht 10 km of meer
geen wolken onder 1500 m en geen cumulonimbus
Van 26 om 0900 UTC
Wind 5 kt uit het oosten
Zicht 10 km of meer
geen wolken onder 1500 m en geen cumulonimbus
Van 26 om 1400 UTC
Wind 5 kt uit het westnoordwesten
Zicht 10 km of meer
geen wolken onder 1500 m en geen cumulonimbus

TAF: YBAS 252317Z 2600/2624 09014KT CAVOK FM260900 10005KT CAVOK FM261400 30005KT CAVOK

Waarnemingen en weersverwachtingen van meer dan 4000 vliegvelden (METAR en TAF).

De beschikbare stations zijn de gele en rode punten op de kaart.

Ga met uw muis naar het station om de naam te zien.

Klik dan om waarnemingen en weersverwachtingen te zien.

kaart wijzigen: klik op de groene knoppen met een zwart kruis om in te zoomen, op de groene knop met een streepje om uit te zoomen of op de groene pijlen voor aangrenzende kaarten.


METAR-TAF: